EWG7KH EDDB-LIMC
Flight info
| Callsign | EWG7KH |
|---|---|
| Flight time | 1h 35m |
| Altitude | 37000 |
| Route | KISUC1Q/06R KISUC Z117 ORTAG/N0436F390 DCT BAMKI/N0432F380 DCT IBAGA DCT DKB DCT TEDGO DCT SONOM/N0439F390 DCT GERSA N850 DEGAD Z424 BASGO/N0386F290 Z424 AKASU/N0331F190 Z424 RIXUV |
| Aircraft | A20N/M-SDE2E3FGHIRWXY/LB1 |
Departure
| Time | 2026-05-05 18:06 |
|---|---|
| Airport | Berlin Brandenburg Airport (EDDB) |
Arrival
| Time | 2026-05-05 19:41 |
|---|---|
| Airport | Milan Malpensa International Airport (LIMC) |
| Time | Latitude | Longitude | Altitude | Speed | Heading |
|---|---|---|---|---|---|
| 2026-05-05 17:25 | 52.36129 | 13.51301 | 155 ft | 0 kts | 335° |
| 2026-05-05 17:50 | 52.36111 | 13.51315 | 154 ft | 4 kts | 335° |
| 2026-05-05 17:50 | 52.36087 | 13.51334 | 154 ft | 4 kts | 332° |
| 2026-05-05 17:50 | 52.36065 | 13.51357 | 155 ft | 4 kts | 312° |
| 2026-05-05 17:50 | 52.36054 | 13.51392 | 155 ft | 3 kts | 253° |
| 2026-05-05 17:51 | 52.36055 | 13.51397 | 155 ft | 1 kts | 248° |
| 2026-05-05 17:54 | 52.36052 | 13.51386 | 155 ft | 1 kts | 248° |
| 2026-05-05 17:54 | 52.36034 | 13.51304 | 154 ft | 13 kts | 250° |
| 2026-05-05 17:55 | 52.36004 | 13.51175 | 153 ft | 13 kts | 249° |
| 2026-05-05 17:55 | 52.35976 | 13.51060 | 152 ft | 11 kts | 248° |
| 2026-05-05 17:55 | 52.35963 | 13.51007 | 152 ft | 0 kts | 247° |
| 2026-05-05 17:55 | 52.35955 | 13.50976 | 152 ft | 12 kts | 248° |
| 2026-05-05 17:56 | 52.35937 | 13.50899 | 151 ft | 0 kts | 249° |
| 2026-05-05 17:56 | 52.35935 | 13.50889 | 151 ft | 6 kts | 249° |
| 2026-05-05 17:56 | 52.35908 | 13.50780 | 152 ft | 9 kts | 249° |
| 2026-05-05 17:57 | 52.35888 | 13.50693 | 152 ft | 6 kts | 246° |
| 2026-05-05 17:57 | 52.35860 | 13.50646 | 152 ft | 10 kts | 211° |
| 2026-05-05 17:57 | 52.35779 | 13.50614 | 151 ft | 14 kts | 218° |
| 2026-05-05 17:57 | 52.35738 | 13.50473 | 153 ft | 15 kts | 249° |
| 2026-05-05 17:58 | 52.35701 | 13.50314 | 153 ft | 14 kts | 249° |
| 2026-05-05 17:58 | 52.35661 | 13.50144 | 153 ft | 17 kts | 249° |
| 2026-05-05 17:58 | 52.35617 | 13.49953 | 151 ft | 20 kts | 247° |
| 2026-05-05 17:58 | 52.35568 | 13.49753 | 152 ft | 14 kts | 250° |
| 2026-05-05 17:59 | 52.35527 | 13.49582 | 153 ft | 18 kts | 248° |
| 2026-05-05 17:59 | 52.35482 | 13.49387 | 155 ft | 19 kts | 249° |
| 2026-05-05 17:59 | 52.35431 | 13.49165 | 155 ft | 22 kts | 248° |
| 2026-05-05 17:59 | 52.35378 | 13.48953 | 155 ft | 20 kts | 249° |
| 2026-05-05 18:00 | 52.35330 | 13.48749 | 154 ft | 19 kts | 249° |
| 2026-05-05 18:00 | 52.35286 | 13.48563 | 151 ft | 17 kts | 248° |
| 2026-05-05 18:00 | 52.35250 | 13.48485 | 151 ft | 9 kts | 205° |
| 2026-05-05 18:00 | 52.35189 | 13.48498 | 153 ft | 9 kts | 163° |
| 2026-05-05 18:01 | 52.35126 | 13.48543 | 154 ft | 11 kts | 141° |
| 2026-05-05 18:01 | 52.35099 | 13.48646 | 154 ft | 7 kts | 101° |
| 2026-05-05 18:01 | 52.35098 | 13.48654 | 154 ft | 0 kts | 99° |
| 2026-05-05 18:03 | 52.35097 | 13.48660 | 154 ft | 5 kts | 99° |
| 2026-05-05 18:04 | 52.35088 | 13.48776 | 154 ft | 13 kts | 97° |
| 2026-05-05 18:04 | 52.35079 | 13.48943 | 153 ft | 16 kts | 93° |
| 2026-05-05 18:04 | 52.35088 | 13.49139 | 154 ft | 17 kts | 75° |
| 2026-05-05 18:04 | 52.35100 | 13.49191 | 154 ft | 0 kts | 69° |
| 2026-05-05 18:05 | 52.35135 | 13.49335 | 155 ft | 45 kts | 68° |
| 2026-05-05 18:05 | 52.35330 | 13.50161 | 151 ft | 109 kts | 68° |
| 2026-05-05 18:05 | 52.35658 | 13.51571 | 240 ft | 150 kts | 69° |
| 2026-05-05 18:06 | 52.35846 | 13.53197 | 1050 ft | 149 kts | 98° |
| 2026-05-05 18:06 | 52.35740 | 13.53747 | 1312 ft | 152 kts | 115° |
| 2026-05-05 18:06 | 52.34189 | 13.55228 | 2398 ft | 175 kts | 170° |
| 2026-05-05 18:06 | 52.32899 | 13.55201 | 2797 ft | 196 kts | 187° |
| 2026-05-05 18:07 | 52.31573 | 13.54416 | 3368 ft | 209 kts | 214° |
| 2026-05-05 18:07 | 52.30407 | 13.52932 | 4081 ft | 220 kts | 218° |
| 2026-05-05 18:07 | 52.29142 | 13.51334 | 4663 ft | 240 kts | 218° |
| 2026-05-05 18:07 | 52.27769 | 13.49597 | 5287 ft | 260 kts | 220° |
| 2026-05-05 18:08 | 52.26941 | 13.48128 | 5787 ft | 269 kts | 238° |
| 2026-05-05 18:08 | 52.26331 | 13.45239 | 6832 ft | 271 kts | 266° |
| 2026-05-05 18:08 | 52.26308 | 13.42160 | 7968 ft | 271 kts | 270° |
| 2026-05-05 18:08 | 52.26319 | 13.39062 | 9025 ft | 275 kts | 270° |
| 2026-05-05 18:09 | 52.26213 | 13.35933 | 10028 ft | 279 kts | 256° |
| 2026-05-05 18:09 | 52.25554 | 13.32851 | 10611 ft | 298 kts | 248° |
| 2026-05-05 18:09 | 52.24708 | 13.29617 | 11013 ft | 321 kts | 246° |
| 2026-05-05 18:09 | 52.23784 | 13.26219 | 11723 ft | 331 kts | 246° |
| 2026-05-05 18:10 | 52.22849 | 13.22772 | 12684 ft | 334 kts | 246° |
| 2026-05-05 18:10 | 52.21921 | 13.19311 | 13594 ft | 338 kts | 246° |
| 2026-05-05 18:10 | 52.20979 | 13.15776 | 14407 ft | 342 kts | 246° |
| 2026-05-05 18:10 | 52.20026 | 13.12192 | 15223 ft | 346 kts | 246° |
| 2026-05-05 18:11 | 52.19064 | 13.08571 | 16026 ft | 350 kts | 246° |
| 2026-05-05 18:11 | 52.18089 | 13.04907 | 16797 ft | 355 kts | 246° |
| 2026-05-05 18:11 | 52.17101 | 13.01197 | 17588 ft | 359 kts | 246° |
| 2026-05-05 18:11 | 52.16101 | 12.97451 | 18327 ft | 363 kts | 246° |
| 2026-05-05 18:12 | 52.15090 | 12.93661 | 19043 ft | 365 kts | 246° |
| 2026-05-05 18:12 | 52.14074 | 12.89862 | 19761 ft | 367 kts | 246° |
| 2026-05-05 18:12 | 52.13050 | 12.86036 | 20472 ft | 370 kts | 245° |
| 2026-05-05 18:12 | 52.12017 | 12.82183 | 21149 ft | 373 kts | 245° |
| 2026-05-05 18:13 | 52.10973 | 12.78297 | 21847 ft | 376 kts | 245° |
| 2026-05-05 18:13 | 52.09921 | 12.74390 | 22524 ft | 379 kts | 245° |
| 2026-05-05 18:13 | 52.08861 | 12.70456 | 23199 ft | 381 kts | 245° |
| 2026-05-05 18:13 | 52.07790 | 12.66489 | 23774 ft | 385 kts | 245° |
| 2026-05-05 18:14 | 52.06711 | 12.62501 | 24346 ft | 387 kts | 245° |
| 2026-05-05 18:14 | 52.05639 | 12.58547 | 24897 ft | 389 kts | 245° |
| 2026-05-05 18:14 | 52.04527 | 12.54450 | 25422 ft | 392 kts | 245° |
| 2026-05-05 18:14 | 52.03436 | 12.50437 | 25725 ft | 395 kts | 245° |
| 2026-05-05 18:15 | 52.02317 | 12.46332 | 25965 ft | 397 kts | 245° |
| 2026-05-05 18:15 | 52.01195 | 12.42218 | 26515 ft | 398 kts | 245° |
| 2026-05-05 18:15 | 52.00069 | 12.38098 | 27071 ft | 400 kts | 244° |
| 2026-05-05 18:15 | 51.98936 | 12.33962 | 27528 ft | 403 kts | 244° |
| 2026-05-05 18:16 | 51.97790 | 12.29783 | 27988 ft | 406 kts | 244° |
| 2026-05-05 18:16 | 51.96639 | 12.25594 | 28435 ft | 408 kts | 244° |
| 2026-05-05 18:16 | 51.95479 | 12.21379 | 28882 ft | 411 kts | 244° |
| 2026-05-05 18:16 | 51.94311 | 12.17143 | 29289 ft | 413 kts | 244° |
| 2026-05-05 18:17 | 51.93133 | 12.12880 | 29703 ft | 416 kts | 244° |
| 2026-05-05 18:17 | 51.91943 | 12.08580 | 30091 ft | 418 kts | 244° |
| 2026-05-05 18:17 | 51.90753 | 12.04286 | 30479 ft | 419 kts | 244° |
| 2026-05-05 18:17 | 51.89568 | 12.00021 | 30869 ft | 421 kts | 244° |
| 2026-05-05 18:18 | 51.88365 | 11.95698 | 31323 ft | 420 kts | 244° |
| 2026-05-05 18:18 | 51.87169 | 11.91407 | 31831 ft | 418 kts | 244° |
| 2026-05-05 18:18 | 51.85949 | 11.87134 | 32344 ft | 416 kts | 241° |
| 2026-05-05 18:18 | 51.84545 | 11.83075 | 32846 ft | 413 kts | 236° |
| 2026-05-05 18:19 | 51.82919 | 11.79266 | 33328 ft | 410 kts | 231° |
| 2026-05-05 18:19 | 51.81176 | 11.75636 | 33791 ft | 408 kts | 231° |
| 2026-05-05 18:19 | 51.79444 | 11.72005 | 34182 ft | 407 kts | 231° |
| 2026-05-05 18:19 | 51.77716 | 11.68369 | 34484 ft | 408 kts | 231° |
| 2026-05-05 18:20 | 51.75987 | 11.64732 | 34784 ft | 408 kts | 231° |
| 2026-05-05 18:20 | 51.74256 | 11.61096 | 35096 ft | 408 kts | 231° |
| 2026-05-05 18:20 | 51.72524 | 11.57463 | 35397 ft | 409 kts | 231° |
| 2026-05-05 18:20 | 51.70788 | 11.53828 | 35687 ft | 409 kts | 231° |
| 2026-05-05 18:21 | 51.69051 | 11.50195 | 35811 ft | 409 kts | 231° |
| 2026-05-05 18:21 | 51.65585 | 11.42962 | 35824 ft | 407 kts | 231° |
| 2026-05-05 18:22 | 51.62114 | 11.35742 | 35823 ft | 408 kts | 231° |
| 2026-05-05 18:22 | 51.58638 | 11.28531 | 35824 ft | 408 kts | 231° |
| 2026-05-05 18:23 | 51.55156 | 11.21327 | 35823 ft | 409 kts | 231° |
| 2026-05-05 18:23 | 51.51503 | 11.14411 | 35819 ft | 408 kts | 221° |
| 2026-05-05 18:24 | 51.46753 | 11.09506 | 35818 ft | 408 kts | 203° |
| 2026-05-05 18:24 | 51.41239 | 11.07379 | 35815 ft | 411 kts | 185° |
| 2026-05-05 18:25 | 51.35519 | 11.06955 | 35812 ft | 411 kts | 185° |
| 2026-05-05 18:25 | 51.29797 | 11.06503 | 35810 ft | 411 kts | 185° |
| 2026-05-05 18:26 | 51.24113 | 11.06055 | 35809 ft | 411 kts | 185° |
| 2026-05-05 18:26 | 51.18394 | 11.05609 | 35803 ft | 411 kts | 185° |
| 2026-05-05 18:27 | 51.12680 | 11.05165 | 35802 ft | 411 kts | 184° |
| 2026-05-05 18:27 | 51.06959 | 11.04722 | 35801 ft | 411 kts | 184° |
| 2026-05-05 18:28 | 50.98382 | 11.04059 | 35804 ft | 411 kts | 184° |
| 2026-05-05 18:28 | 50.92659 | 11.03618 | 35803 ft | 412 kts | 184° |
| 2026-05-05 18:29 | 50.86974 | 11.03181 | 35803 ft | 411 kts | 184° |
| 2026-05-05 18:29 | 50.81243 | 11.02742 | 35802 ft | 412 kts | 184° |
| 2026-05-05 18:30 | 50.75503 | 11.02302 | 35797 ft | 412 kts | 184° |
| 2026-05-05 18:30 | 50.69825 | 11.01045 | 35805 ft | 412 kts | 194° |
| 2026-05-05 18:31 | 50.64318 | 10.98437 | 35805 ft | 413 kts | 197° |
| 2026-05-05 18:31 | 50.58817 | 10.95766 | 35802 ft | 414 kts | 197° |
| 2026-05-05 18:32 | 50.53333 | 10.93133 | 35814 ft | 415 kts | 197° |
| 2026-05-05 18:32 | 50.47809 | 10.90491 | 35805 ft | 415 kts | 197° |
| 2026-05-05 18:33 | 50.42274 | 10.87850 | 35820 ft | 416 kts | 197° |
| 2026-05-05 18:33 | 50.36728 | 10.85210 | 35808 ft | 417 kts | 196° |
| 2026-05-05 18:34 | 50.31195 | 10.82583 | 35812 ft | 417 kts | 196° |
| 2026-05-05 18:34 | 50.25639 | 10.79951 | 35803 ft | 418 kts | 196° |
| 2026-05-05 18:35 | 50.20066 | 10.77315 | 35805 ft | 418 kts | 197° |
| 2026-05-05 18:35 | 50.17399 | 10.75520 | 35804 ft | 419 kts | 210° |
| 2026-05-05 18:35 | 50.14929 | 10.73092 | 35803 ft | 420 kts | 211° |
| 2026-05-05 18:36 | 50.10009 | 10.68160 | 35816 ft | 420 kts | 211° |
| 2026-05-05 18:36 | 50.05082 | 10.63243 | 35807 ft | 421 kts | 211° |
| 2026-05-05 18:37 | 50.00141 | 10.58340 | 35811 ft | 421 kts | 211° |
| 2026-05-05 18:37 | 49.95199 | 10.53452 | 35817 ft | 421 kts | 211° |
| 2026-05-05 18:38 | 49.90287 | 10.48606 | 35812 ft | 421 kts | 211° |
| 2026-05-05 18:38 | 49.85338 | 10.43735 | 35815 ft | 421 kts | 211° |
| 2026-05-05 18:39 | 49.80380 | 10.38868 | 35818 ft | 421 kts | 211° |
| 2026-05-05 18:39 | 49.75417 | 10.34007 | 35818 ft | 422 kts | 211° |
| 2026-05-05 18:40 | 49.70453 | 10.29157 | 35821 ft | 422 kts | 211° |
| 2026-05-05 18:40 | 49.65477 | 10.24307 | 35824 ft | 422 kts | 211° |
| 2026-05-05 18:41 | 49.60533 | 10.19501 | 35822 ft | 423 kts | 211° |
| 2026-05-05 18:41 | 49.55551 | 10.14669 | 35827 ft | 423 kts | 211° |
| 2026-05-05 18:42 | 49.50570 | 10.09850 | 35827 ft | 423 kts | 211° |
| 2026-05-05 18:42 | 49.45579 | 10.05034 | 35829 ft | 423 kts | 211° |
| 2026-05-05 18:43 | 49.40609 | 10.00249 | 35831 ft | 423 kts | 211° |
| 2026-05-05 18:43 | 49.35611 | 9.95450 | 35831 ft | 423 kts | 211° |
| 2026-05-05 18:44 | 49.30614 | 9.90663 | 35829 ft | 423 kts | 211° |
| 2026-05-05 18:44 | 49.25616 | 9.85887 | 35854 ft | 424 kts | 211° |
| 2026-05-05 18:45 | 49.20607 | 9.81111 | 35857 ft | 424 kts | 211° |
| 2026-05-05 18:45 | 49.15598 | 9.76346 | 35858 ft | 424 kts | 211° |
| 2026-05-05 18:46 | 49.10582 | 9.71587 | 35858 ft | 424 kts | 211° |
| 2026-05-05 18:46 | 49.05599 | 9.66871 | 35855 ft | 424 kts | 211° |
| 2026-05-05 18:47 | 49.00579 | 9.62131 | 35855 ft | 424 kts | 211° |
| 2026-05-05 18:47 | 48.95552 | 9.57396 | 35853 ft | 424 kts | 211° |
| 2026-05-05 18:48 | 48.90529 | 9.52675 | 35843 ft | 424 kts | 211° |
| 2026-05-05 18:48 | 48.85497 | 9.47957 | 35833 ft | 424 kts | 211° |
| 2026-05-05 18:49 | 48.80468 | 9.43254 | 35830 ft | 424 kts | 211° |
| 2026-05-05 18:49 | 48.75436 | 9.38558 | 35831 ft | 424 kts | 211° |
| 2026-05-05 18:50 | 48.70422 | 9.33892 | 36261 ft | 425 kts | 211° |
| 2026-05-05 18:50 | 48.67898 | 9.31547 | 36607 ft | 424 kts | 211° |
| 2026-05-05 18:50 | 48.65375 | 9.29218 | 36806 ft | 423 kts | 210° |
| 2026-05-05 18:51 | 48.60107 | 9.25334 | 36828 ft | 421 kts | 201° |
| 2026-05-05 18:51 | 48.54519 | 9.22660 | 36830 ft | 421 kts | 196° |
| 2026-05-05 18:52 | 48.48918 | 9.20222 | 36834 ft | 420 kts | 197° |
| 2026-05-05 18:52 | 48.44207 | 9.18153 | 36837 ft | 420 kts | 197° |
| 2026-05-05 18:53 | 48.38630 | 9.15704 | 36842 ft | 420 kts | 197° |
| 2026-05-05 18:53 | 48.33015 | 9.13244 | 36855 ft | 420 kts | 197° |
| 2026-05-05 18:54 | 48.27399 | 9.10790 | 36858 ft | 421 kts | 197° |
| 2026-05-05 18:54 | 48.21772 | 9.08337 | 36871 ft | 420 kts | 197° |
| 2026-05-05 18:55 | 48.16155 | 9.05893 | 36869 ft | 420 kts | 197° |
| 2026-05-05 18:55 | 48.10538 | 9.03456 | 36868 ft | 420 kts | 197° |
| 2026-05-05 18:56 | 48.04920 | 9.01023 | 36871 ft | 420 kts | 197° |
| 2026-05-05 18:56 | 47.99312 | 8.98600 | 36871 ft | 419 kts | 197° |
| 2026-05-05 18:57 | 47.93743 | 8.96199 | 36873 ft | 419 kts | 197° |
| 2026-05-05 18:57 | 47.88142 | 8.93790 | 36873 ft | 418 kts | 197° |
| 2026-05-05 18:58 | 47.82547 | 8.91389 | 36870 ft | 418 kts | 197° |
| 2026-05-05 18:58 | 47.76951 | 8.88976 | 36873 ft | 418 kts | 198° |
| 2026-05-05 18:59 | 47.71440 | 8.86242 | 36875 ft | 417 kts | 200° |
| 2026-05-05 18:59 | 47.65944 | 8.83464 | 36875 ft | 417 kts | 200° |
| 2026-05-05 19:00 | 47.60481 | 8.80754 | 36879 ft | 417 kts | 200° |
| 2026-05-05 19:00 | 47.54974 | 8.78045 | 36884 ft | 416 kts | 200° |
| 2026-05-05 19:01 | 47.49465 | 8.75342 | 36882 ft | 416 kts | 200° |
| 2026-05-05 19:01 | 47.43964 | 8.72648 | 36883 ft | 416 kts | 200° |
| 2026-05-05 19:02 | 47.38467 | 8.69962 | 36710 ft | 416 kts | 200° |
| 2026-05-05 19:02 | 47.35731 | 8.68627 | 36447 ft | 414 kts | 200° |
| 2026-05-05 19:02 | 47.32986 | 8.67290 | 36196 ft | 413 kts | 200° |
| 2026-05-05 19:03 | 47.30261 | 8.65963 | 35688 ft | 415 kts | 200° |
| 2026-05-05 19:03 | 47.27528 | 8.64634 | 34907 ft | 419 kts | 200° |
| 2026-05-05 19:03 | 47.24747 | 8.63282 | 34026 ft | 423 kts | 200° |
| 2026-05-05 19:03 | 47.21942 | 8.61921 | 33156 ft | 424 kts | 200° |
| 2026-05-05 19:04 | 47.19143 | 8.60564 | 32326 ft | 424 kts | 200° |
| 2026-05-05 19:04 | 47.16343 | 8.59208 | 31478 ft | 424 kts | 200° |
| 2026-05-05 19:04 | 47.13547 | 8.57857 | 30786 ft | 421 kts | 200° |
| 2026-05-05 19:04 | 47.10782 | 8.56523 | 30206 ft | 416 kts | 200° |
| 2026-05-05 19:05 | 47.08038 | 8.55203 | 29531 ft | 412 kts | 199° |
| 2026-05-05 19:05 | 47.05272 | 8.54205 | 29051 ft | 406 kts | 192° |
| 2026-05-05 19:05 | 47.02467 | 8.53754 | 28936 ft | 409 kts | 186° |
| 2026-05-05 19:05 | 46.99585 | 8.53822 | 28931 ft | 417 kts | 179° |
| 2026-05-05 19:06 | 46.96693 | 8.54246 | 28653 ft | 416 kts | 178° |
| 2026-05-05 19:06 | 46.93846 | 8.54666 | 27831 ft | 418 kts | 178° |
| 2026-05-05 19:06 | 46.90926 | 8.55091 | 26697 ft | 424 kts | 178° |
| 2026-05-05 19:06 | 46.87990 | 8.55515 | 25870 ft | 422 kts | 178° |
| 2026-05-05 19:07 | 46.85073 | 8.55934 | 25164 ft | 418 kts | 178° |
| 2026-05-05 19:07 | 46.82194 | 8.56349 | 24491 ft | 414 kts | 178° |
| 2026-05-05 19:07 | 46.79334 | 8.56759 | 23871 ft | 410 kts | 178° |
| 2026-05-05 19:07 | 46.76503 | 8.57164 | 23191 ft | 406 kts | 178° |
| 2026-05-05 19:08 | 46.73707 | 8.57565 | 22367 ft | 403 kts | 178° |
| 2026-05-05 19:08 | 46.70928 | 8.57960 | 21648 ft | 398 kts | 178° |
| 2026-05-05 19:08 | 46.68196 | 8.58348 | 20783 ft | 390 kts | 178° |
| 2026-05-05 19:08 | 46.65553 | 8.58726 | 19958 ft | 381 kts | 178° |
| 2026-05-05 19:09 | 46.62937 | 8.59097 | 19113 ft | 374 kts | 178° |
| 2026-05-05 19:09 | 46.60372 | 8.59462 | 18439 ft | 365 kts | 178° |
| 2026-05-05 19:09 | 46.57884 | 8.59817 | 18041 ft | 356 kts | 178° |
| 2026-05-05 19:09 | 46.55392 | 8.60167 | 17963 ft | 361 kts | 178° |
| 2026-05-05 19:10 | 46.52880 | 8.60521 | 18275 ft | 363 kts | 178° |
| 2026-05-05 19:10 | 46.50371 | 8.60876 | 18714 ft | 362 kts | 178° |
| 2026-05-05 19:10 | 46.47849 | 8.61233 | 18921 ft | 364 kts | 178° |
| 2026-05-05 19:10 | 46.45339 | 8.61403 | 18995 ft | 359 kts | 187° |
| 2026-05-05 19:11 | 46.42893 | 8.60733 | 18992 ft | 356 kts | 200° |
| 2026-05-05 19:11 | 46.40664 | 8.59232 | 18989 ft | 353 kts | 213° |
| 2026-05-05 19:11 | 46.38610 | 8.57365 | 19000 ft | 353 kts | 213° |
| 2026-05-05 19:11 | 46.36581 | 8.55531 | 18989 ft | 332 kts | 213° |
| 2026-05-05 19:12 | 46.34651 | 8.53798 | 18992 ft | 324 kts | 213° |
| 2026-05-05 19:12 | 46.32721 | 8.52065 | 18997 ft | 329 kts | 213° |
| 2026-05-05 19:12 | 46.30803 | 8.50349 | 18988 ft | 317 kts | 213° |
| 2026-05-05 19:12 | 46.28956 | 8.48767 | 18989 ft | 301 kts | 207° |
| 2026-05-05 19:13 | 46.26988 | 8.47787 | 18993 ft | 303 kts | 194° |
| 2026-05-05 19:13 | 46.24859 | 8.47555 | 18995 ft | 313 kts | 180° |
| 2026-05-05 19:13 | 46.22635 | 8.47869 | 18999 ft | 325 kts | 178° |
| 2026-05-05 19:13 | 46.20378 | 8.48201 | 18989 ft | 322 kts | 178° |
| 2026-05-05 19:14 | 46.18202 | 8.48544 | 18992 ft | 307 kts | 177° |
| 2026-05-05 19:14 | 46.16076 | 8.48935 | 18998 ft | 312 kts | 176° |
| 2026-05-05 19:14 | 46.13913 | 8.49344 | 18992 ft | 313 kts | 176° |
| 2026-05-05 19:14 | 46.11762 | 8.49754 | 18995 ft | 311 kts | 177° |
| 2026-05-05 19:15 | 46.09612 | 8.50157 | 18994 ft | 312 kts | 176° |
| 2026-05-05 19:15 | 46.07472 | 8.50555 | 18995 ft | 310 kts | 177° |
| 2026-05-05 19:15 | 46.05319 | 8.50952 | 18992 ft | 312 kts | 177° |
| 2026-05-05 19:15 | 46.03164 | 8.51346 | 18992 ft | 312 kts | 177° |
| 2026-05-05 19:16 | 46.01039 | 8.51735 | 18989 ft | 312 kts | 177° |
| 2026-05-05 19:16 | 45.98886 | 8.52129 | 18986 ft | 311 kts | 177° |
| 2026-05-05 19:16 | 45.96746 | 8.52522 | 18875 ft | 310 kts | 177° |
| 2026-05-05 19:16 | 45.94609 | 8.52913 | 18551 ft | 308 kts | 177° |
| 2026-05-05 19:17 | 45.92479 | 8.53302 | 18119 ft | 308 kts | 177° |
| 2026-05-05 19:17 | 45.90351 | 8.53689 | 17648 ft | 307 kts | 176° |
| 2026-05-05 19:17 | 45.88238 | 8.54074 | 17172 ft | 305 kts | 176° |
| 2026-05-05 19:17 | 45.86125 | 8.54458 | 16686 ft | 305 kts | 176° |
| 2026-05-05 19:18 | 45.84030 | 8.54840 | 16278 ft | 302 kts | 176° |
| 2026-05-05 19:18 | 45.81943 | 8.55219 | 15854 ft | 301 kts | 176° |
| 2026-05-05 19:18 | 45.79891 | 8.55592 | 15420 ft | 300 kts | 176° |
| 2026-05-05 19:18 | 45.77825 | 8.55966 | 14989 ft | 299 kts | 176° |
| 2026-05-05 19:19 | 45.75768 | 8.56338 | 14571 ft | 298 kts | 176° |
| 2026-05-05 19:19 | 45.73712 | 8.56711 | 14146 ft | 297 kts | 176° |
| 2026-05-05 19:19 | 45.71668 | 8.57096 | 13730 ft | 296 kts | 175° |
| 2026-05-05 19:19 | 45.69633 | 8.57486 | 13309 ft | 293 kts | 175° |
| 2026-05-05 19:20 | 45.67617 | 8.57873 | 12865 ft | 292 kts | 175° |
| 2026-05-05 19:20 | 45.65609 | 8.58257 | 12447 ft | 290 kts | 175° |
| 2026-05-05 19:20 | 45.63615 | 8.58637 | 12034 ft | 288 kts | 175° |
| 2026-05-05 19:20 | 45.61634 | 8.59014 | 11616 ft | 286 kts | 175° |
| 2026-05-05 19:21 | 45.59664 | 8.59388 | 11241 ft | 284 kts | 175° |
| 2026-05-05 19:21 | 45.57731 | 8.59766 | 10835 ft | 283 kts | 172° |
| 2026-05-05 19:21 | 45.55801 | 8.60301 | 10431 ft | 282 kts | 171° |
| 2026-05-05 19:21 | 45.53882 | 8.60838 | 10040 ft | 280 kts | 171° |
| 2026-05-05 19:22 | 45.51971 | 8.61370 | 9633 ft | 278 kts | 171° |
| 2026-05-05 19:22 | 45.50073 | 8.61897 | 9189 ft | 277 kts | 171° |
| 2026-05-05 19:22 | 45.48199 | 8.62417 | 8917 ft | 268 kts | 171° |
| 2026-05-05 19:22 | 45.46432 | 8.62910 | 8757 ft | 250 kts | 171° |
| 2026-05-05 19:23 | 45.44766 | 8.63374 | 8461 ft | 241 kts | 171° |
| 2026-05-05 19:23 | 45.43142 | 8.63822 | 8146 ft | 239 kts | 171° |
| 2026-05-05 19:23 | 45.41513 | 8.64270 | 7828 ft | 238 kts | 171° |
| 2026-05-05 19:23 | 45.39886 | 8.64718 | 7511 ft | 237 kts | 171° |
| 2026-05-05 19:24 | 45.38270 | 8.65163 | 7186 ft | 236 kts | 171° |
| 2026-05-05 19:24 | 45.36654 | 8.65607 | 6817 ft | 238 kts | 171° |
| 2026-05-05 19:24 | 45.35004 | 8.66060 | 6282 ft | 245 kts | 170° |
| 2026-05-05 19:24 | 45.33327 | 8.66521 | 5715 ft | 245 kts | 170° |
| 2026-05-05 19:25 | 45.31649 | 8.66984 | 5137 ft | 247 kts | 170° |
| 2026-05-05 19:25 | 45.29958 | 8.67450 | 4545 ft | 249 kts | 169° |
| 2026-05-05 19:25 | 45.28278 | 8.67913 | 4153 ft | 241 kts | 169° |
| 2026-05-05 19:25 | 45.26685 | 8.68352 | 4035 ft | 225 kts | 169° |
| 2026-05-05 19:26 | 45.25126 | 8.68782 | 4026 ft | 232 kts | 169° |
| 2026-05-05 19:26 | 45.23557 | 8.69214 | 4025 ft | 228 kts | 169° |
| 2026-05-05 19:26 | 45.22001 | 8.69641 | 4020 ft | 226 kts | 169° |
| 2026-05-05 19:26 | 45.20542 | 8.70041 | 4022 ft | 206 kts | 169° |
| 2026-05-05 19:27 | 45.19130 | 8.70429 | 4000 ft | 209 kts | 169° |
| 2026-05-05 19:27 | 45.17710 | 8.70818 | 3998 ft | 206 kts | 169° |
| 2026-05-05 19:27 | 45.16299 | 8.71205 | 4000 ft | 206 kts | 169° |
| 2026-05-05 19:27 | 45.14889 | 8.71594 | 3997 ft | 207 kts | 169° |
| 2026-05-05 19:28 | 45.13474 | 8.71983 | 4000 ft | 206 kts | 169° |
| 2026-05-05 19:28 | 45.12063 | 8.72371 | 4000 ft | 207 kts | 169° |
| 2026-05-05 19:28 | 45.10648 | 8.72760 | 4000 ft | 207 kts | 169° |
| 2026-05-05 19:28 | 45.09239 | 8.73146 | 4000 ft | 206 kts | 169° |
| 2026-05-05 19:29 | 45.07924 | 8.73907 | 4003 ft | 208 kts | 141° |
| 2026-05-05 19:29 | 45.07134 | 8.75602 | 3998 ft | 212 kts | 105° |
| 2026-05-05 19:29 | 45.07179 | 8.77678 | 4002 ft | 216 kts | 71° |
| 2026-05-05 19:29 | 45.08063 | 8.79379 | 3999 ft | 219 kts | 35° |
| 2026-05-05 19:30 | 45.09477 | 8.80192 | 4001 ft | 222 kts | 14° |
| 2026-05-05 19:30 | 45.10975 | 8.80705 | 4000 ft | 220 kts | 13° |
| 2026-05-05 19:30 | 45.12443 | 8.81201 | 4000 ft | 220 kts | 13° |
| 2026-05-05 19:30 | 45.13934 | 8.81703 | 4000 ft | 220 kts | 13° |
| 2026-05-05 19:31 | 45.15425 | 8.82209 | 4000 ft | 220 kts | 13° |
| 2026-05-05 19:31 | 45.16914 | 8.82714 | 4000 ft | 220 kts | 13° |
| 2026-05-05 19:31 | 45.18403 | 8.83219 | 3999 ft | 220 kts | 13° |
| 2026-05-05 19:31 | 45.19892 | 8.83722 | 3996 ft | 219 kts | 13° |
| 2026-05-05 19:32 | 45.21379 | 8.84225 | 3997 ft | 220 kts | 13° |
| 2026-05-05 19:32 | 45.22871 | 8.84727 | 3999 ft | 221 kts | 13° |
| 2026-05-05 19:32 | 45.24377 | 8.84869 | 4002 ft | 218 kts | 343° |
| 2026-05-05 19:32 | 45.25791 | 8.84050 | 4015 ft | 220 kts | 335° |
| 2026-05-05 19:33 | 45.27229 | 8.83300 | 4021 ft | 219 kts | 343° |
| 2026-05-05 19:33 | 45.28710 | 8.82776 | 4021 ft | 219 kts | 347° |
| 2026-05-05 19:33 | 45.30195 | 8.82364 | 4024 ft | 219 kts | 348° |
| 2026-05-05 19:33 | 45.31697 | 8.81958 | 4023 ft | 219 kts | 348° |
| 2026-05-05 19:34 | 45.33194 | 8.81549 | 4022 ft | 218 kts | 348° |
| 2026-05-05 19:34 | 45.34689 | 8.81140 | 4024 ft | 219 kts | 348° |
| 2026-05-05 19:34 | 45.36183 | 8.80731 | 4025 ft | 219 kts | 349° |
| 2026-05-05 19:35 | 45.39170 | 8.79913 | 4027 ft | 218 kts | 349° |
| 2026-05-05 19:35 | 45.40659 | 8.79505 | 4025 ft | 218 kts | 349° |
| 2026-05-05 19:35 | 45.42091 | 8.79113 | 4014 ft | 203 kts | 349° |
| 2026-05-05 19:35 | 45.43414 | 8.78749 | 4032 ft | 185 kts | 349° |
| 2026-05-05 19:36 | 45.44672 | 8.78404 | 4024 ft | 188 kts | 349° |
| 2026-05-05 19:36 | 45.45950 | 8.78053 | 3894 ft | 186 kts | 349° |
| 2026-05-05 19:36 | 45.47215 | 8.77705 | 3640 ft | 184 kts | 349° |
| 2026-05-05 19:36 | 45.48472 | 8.77359 | 3400 ft | 183 kts | 349° |
| 2026-05-05 19:37 | 45.49719 | 8.77016 | 3152 ft | 181 kts | 349° |
| 2026-05-05 19:37 | 45.50958 | 8.76675 | 2911 ft | 181 kts | 350° |
| 2026-05-05 19:37 | 45.52184 | 8.76338 | 2658 ft | 179 kts | 350° |
| 2026-05-05 19:37 | 45.53408 | 8.76001 | 2431 ft | 179 kts | 351° |
| 2026-05-05 19:38 | 45.54587 | 8.75675 | 2202 ft | 162 kts | 351° |
| 2026-05-05 19:38 | 45.55628 | 8.75387 | 1972 ft | 144 kts | 351° |
| 2026-05-05 19:38 | 45.56566 | 8.75129 | 1786 ft | 131 kts | 351° |
| 2026-05-05 19:38 | 45.57467 | 8.74882 | 1601 ft | 132 kts | 351° |
| 2026-05-05 19:39 | 45.58334 | 8.74642 | 1416 ft | 127 kts | 350° |
| 2026-05-05 19:39 | 45.59200 | 8.74404 | 1236 ft | 126 kts | 349° |
| 2026-05-05 19:39 | 45.60055 | 8.74167 | 1062 ft | 124 kts | 349° |
| 2026-05-05 19:39 | 45.60905 | 8.73936 | 923 ft | 125 kts | 349° |
| 2026-05-05 19:40 | 45.61756 | 8.73713 | 775 ft | 124 kts | 349° |
| 2026-05-05 19:40 | 45.62533 | 8.73487 | 740 ft | 95 kts | 348° |
| 2026-05-05 19:40 | 45.63015 | 8.73344 | 741 ft | 58 kts | 336° |
| 2026-05-05 19:40 | 45.63225 | 8.73136 | 741 ft | 54 kts | 307° |
| 2026-05-05 19:41 | 45.63369 | 8.72835 | 740 ft | 15 kts | 302° |
| 2026-05-05 19:41 | 45.63394 | 8.72786 | 741 ft | 2 kts | 303° |
| 2026-05-05 19:41 | 45.63409 | 8.72736 | 741 ft | 14 kts | 284° |
| 2026-05-05 19:41 | 45.63401 | 8.72570 | 739 ft | 19 kts | 257° |
| 2026-05-05 19:42 | 45.63370 | 8.72366 | 741 ft | 22 kts | 259° |
| 2026-05-05 19:42 | 45.63345 | 8.72163 | 740 ft | 9 kts | 262° |
| 2026-05-05 19:42 | 45.63343 | 8.72141 | 740 ft | 0 kts | 260° |
| 2026-05-05 19:42 | 45.63342 | 8.72133 | 741 ft | 5 kts | 260° |
| 2026-05-05 19:43 | 45.63334 | 8.72074 | 741 ft | 2 kts | 257° |
| 2026-05-05 19:43 | 45.63333 | 8.72065 | 741 ft | 0 kts | 257° |
| 2026-05-05 19:43 | 45.63331 | 8.72055 | 739 ft | 7 kts | 257° |
| 2026-05-05 19:44 | 45.63308 | 8.71995 | 740 ft | 8 kts | 213° |
| 2026-05-05 19:44 | 45.63243 | 8.71978 | 741 ft | 11 kts | 178° |
| 2026-05-05 19:44 | 45.63155 | 8.71996 | 739 ft | 13 kts | 166° |
| 2026-05-05 19:44 | 45.63054 | 8.72032 | 741 ft | 17 kts | 168° |
| 2026-05-05 19:45 | 45.62932 | 8.72065 | 740 ft | 17 kts | 168° |
| 2026-05-05 19:45 | 45.62814 | 8.72099 | 741 ft | 17 kts | 169° |
| 2026-05-05 19:45 | 45.62771 | 8.72112 | 741 ft | 11 kts | 167° |
| 2026-05-05 19:45 | 45.62692 | 8.72082 | 740 ft | 11 kts | 248° |
| 2026-05-05 19:46 | 45.62669 | 8.71964 | 739 ft | 14 kts | 256° |
| 2026-05-05 19:46 | 45.62644 | 8.71865 | 740 ft | 6 kts | 214° |
| 2026-05-05 19:46 | 45.62594 | 8.71847 | 741 ft | 9 kts | 183° |
| 2026-05-05 19:46 | 45.62559 | 8.71844 | 741 ft | 0 kts | 181° |
| 2026-05-05 19:47 | 45.62547 | 8.71845 | 741 ft | 5 kts | 174° |
| 2026-05-05 19:47 | 45.62516 | 8.71856 | 740 ft | 6 kts | 167° |
| 2026-05-05 19:47 | 45.62503 | 8.71876 | 741 ft | 1 kts | 109° |
| 2026-05-05 19:47 | 45.62511 | 8.71897 | 741 ft | 4 kts | 48° |
| 2026-05-05 19:48 | 45.62530 | 8.71934 | 741 ft | 4 kts | 62° |
| 2026-05-05 19:48 | 45.62535 | 8.71958 | 741 ft | 0 kts | 76° |
| 2026-05-05 19:48 | 45.62535 | 8.71963 | 741 ft | 0 kts | 77° |
| 2026-05-05 19:48 | 45.62536 | 8.71963 | 741 ft | 0 kts | 74° |
| 2026-05-05 19:49 | 45.62537 | 8.71973 | 741 ft | 0 kts | 77° |
| 2026-05-05 19:49 | 45.62538 | 8.71975 | 741 ft | 1 kts | 77° |
| 2026-05-05 19:50 | 45.62539 | 8.71981 | 741 ft | 0 kts | 78° |